createdAt,value
2022-08-28T00:02:43.610Z,21.80
2022-08-28T00:07:47.986Z,20.30
2022-08-28T00:12:52.690Z,27.70
2022-08-28T00:17:55.696Z,21.10
2022-08-28T00:23:00.422Z,21.10
2022-08-28T00:28:08.728Z,23.40
2022-08-28T00:33:23.795Z,21.80
2022-08-28T00:38:28.395Z,20.90
2022-08-28T00:43:40.101Z,21.60
2022-08-28T00:48:42.999Z,16.20
2022-08-28T00:58:51.858Z,15.10
2022-08-28T01:03:54.595Z,17.90
2022-08-28T01:08:59.042Z,18.70
2022-08-28T01:14:05.493Z,23.70
2022-08-28T01:19:18.431Z,17.50
2022-08-28T01:24:22.473Z,21.70
2022-08-28T01:29:25.656Z,19.60
2022-08-28T01:34:28.582Z,18.90
2022-08-28T01:44:34.287Z,17.80
2022-08-28T01:49:37.326Z,20.00
2022-08-28T01:59:43.574Z,16.30
2022-08-28T02:04:48.346Z,17.90
2022-08-28T02:09:51.849Z,19.50
2022-08-28T02:14:55.171Z,18.50
2022-08-28T02:19:59.835Z,17.00
2022-08-28T02:25:05.049Z,16.10
2022-08-28T02:30:11.859Z,21.00
2022-08-28T02:35:17.221Z,21.40
2022-08-28T02:40:23.741Z,22.20
2022-08-28T02:45:26.689Z,20.20
2022-08-28T02:50:31.113Z,18.90
2022-08-28T02:55:34.350Z,20.70
2022-08-28T03:00:37.202Z,18.30
2022-08-28T03:05:39.984Z,18.30
2022-08-28T03:10:42.700Z,17.80
2022-08-28T03:15:46.502Z,19.70
2022-08-28T03:20:56.007Z,16.00
2022-08-28T03:26:01.791Z,18.00
2022-08-28T03:31:06.136Z,18.80
2022-08-28T03:36:14.002Z,19.40
2022-08-28T03:41:19.131Z,20.30
2022-08-28T03:46:24.491Z,17.20
2022-08-28T03:51:30.793Z,17.80
2022-08-28T03:56:33.612Z,19.20
2022-08-28T04:01:38.372Z,19.20
2022-08-28T04:06:41.794Z,19.80
2022-08-28T04:11:44.514Z,18.30
2022-08-28T04:16:47.326Z,20.70
2022-08-28T04:21:50.098Z,17.00
2022-08-28T04:26:54.198Z,17.00
2022-08-28T04:31:58.226Z,18.30
2022-08-28T04:37:01.105Z,14.80
2022-08-28T04:42:04.073Z,13.90
2022-08-28T04:52:09.449Z,19.20
2022-08-28T04:57:12.180Z,17.80
2022-08-28T05:02:14.935Z,15.80
2022-08-28T05:12:21.035Z,18.60
2022-08-28T05:17:23.757Z,17.10
2022-08-28T05:22:31.149Z,18.70
2022-08-28T05:27:33.930Z,15.90
2022-08-28T05:37:39.783Z,18.60
2022-08-28T05:42:45.099Z,17.20
2022-08-28T05:52:50.464Z,17.20
2022-08-28T06:02:55.869Z,15.40
2022-08-28T06:07:59.226Z,19.10
2022-08-28T06:13:02.225Z,17.80
2022-08-28T06:18:05.885Z,16.80
2022-08-28T06:23:10.766Z,14.50
2022-08-28T06:28:19.369Z,18.80
2022-08-28T06:33:23.697Z,16.80
2022-08-28T06:38:27.162Z,16.40
2022-08-28T06:43:29.942Z,15.50
2022-08-28T06:48:32.897Z,13.30
2022-08-28T06:53:36.439Z,17.80
2022-08-28T06:58:41.826Z,14.90
2022-08-28T07:03:45.957Z,15.70
2022-08-28T07:08:49.265Z,13.70
2022-08-28T07:13:52.812Z,15.70
2022-08-28T07:18:57.188Z,12.90
2022-08-28T07:23:59.933Z,17.70
2022-08-28T07:29:10.138Z,13.10
2022-08-28T07:34:17.266Z,12.60
2022-08-28T07:39:20.034Z,12.40
2022-08-28T07:44:41.288Z,19.10
2022-08-28T07:49:44.938Z,16.20
2022-08-28T07:54:48.140Z,16.80
2022-08-28T07:59:52.476Z,16.90
2022-08-28T08:04:55.388Z,15.10
2022-08-28T08:09:58.522Z,11.60
2022-08-28T08:15:01.271Z,11.50
2022-08-28T08:20:05.629Z,11.00
2022-08-28T08:25:08.831Z,11.90
2022-08-28T08:30:12.097Z,16.30
2022-08-28T08:35:14.803Z,14.60
2022-08-28T08:40:19.763Z,20.80
2022-08-28T08:45:26.543Z,14.30
2022-08-28T08:50:34.620Z,20.70
2022-08-28T08:55:45.202Z,13.70
2022-08-28T09:00:57.508Z,14.00
2022-08-28T09:06:06.029Z,12.80
2022-08-28T09:11:45.186Z,13.40
2022-08-28T09:16:53.474Z,15.00
2022-08-28T09:21:56.783Z,12.80
2022-08-28T09:27:01.837Z,11.00
2022-08-28T09:32:25.478Z,12.00
2022-08-28T09:37:32.604Z,13.50
2022-08-28T09:42:53.973Z,14.30
2022-08-28T09:48:02.678Z,15.30
2022-08-28T09:53:14.313Z,13.50
2022-08-28T09:58:17.542Z,13.80
2022-08-28T10:03:38.048Z,12.20
2022-08-28T10:08:49.788Z,14.00
2022-08-28T10:14:24.704Z,18.50
2022-08-28T10:19:59.373Z,14.20
2022-08-28T10:25:08.303Z,13.30
2022-08-28T10:30:17.615Z,15.30
2022-08-28T10:35:38.210Z,13.90
2022-08-28T10:41:08.465Z,10.70
2022-08-28T10:46:23.106Z,27.10
2022-08-28T10:51:44.417Z,13.00
2022-08-28T10:56:56.632Z,18.60
2022-08-28T11:02:01.044Z,15.80
2022-08-28T11:07:38.822Z,15.30
2022-08-28T11:12:43.565Z,13.20
2022-08-28T11:17:47.729Z,12.00
2022-08-28T11:22:53.370Z,12.60
2022-08-28T11:28:22.437Z,16.70
2022-08-28T11:33:36.080Z,18.10
2022-08-28T11:38:41.782Z,17.90
2022-08-28T11:43:46.603Z,20.20
2022-08-28T11:48:53.178Z,15.10
2022-08-28T11:54:04.279Z,14.70
2022-08-28T12:04:22.696Z,16.70
2022-08-28T12:09:37.446Z,16.40
2022-08-28T12:14:40.062Z,20.80
2022-08-28T12:20:04.927Z,14.30
2022-08-28T12:25:22.061Z,17.70
2022-08-28T12:30:31.065Z,18.00
2022-08-28T12:35:34.307Z,15.50
2022-08-28T12:40:37.063Z,17.30
2022-08-28T12:45:45.509Z,20.90
2022-08-28T12:50:56.369Z,18.30
2022-08-28T12:56:02.206Z,19.50
2022-08-28T13:01:16.337Z,20.20
2022-08-28T13:06:25.772Z,18.60
2022-08-28T13:11:36.821Z,18.50
2022-08-28T13:16:47.126Z,17.30
2022-08-28T13:22:02.004Z,17.20
2022-08-28T13:27:19.479Z,17.70
2022-08-28T13:32:23.111Z,16.80
2022-08-28T13:37:59.861Z,18.60
2022-08-28T13:43:07.095Z,22.40
2022-08-28T13:48:11.273Z,14.70
2022-08-28T13:53:16.071Z,21.20
2022-08-28T13:58:19.477Z,17.40
2022-08-28T14:03:39.109Z,19.40
2022-08-28T14:08:43.796Z,17.40
2022-08-28T14:13:55.349Z,20.60
2022-08-28T14:19:04.510Z,16.50
2022-08-28T14:24:08.463Z,21.80
2022-08-28T14:29:13.531Z,18.30
2022-08-28T14:34:20.127Z,18.60
2022-08-28T14:39:25.241Z,16.80
2022-08-28T14:44:28.005Z,21.60
2022-08-28T14:49:30.857Z,25.20
2022-08-28T14:54:33.590Z,21.30
2022-08-28T14:59:36.278Z,20.10
2022-08-28T15:04:39.154Z,21.50
2022-08-28T15:09:43.034Z,19.70
2022-08-28T15:14:54.886Z,20.40
2022-08-28T15:20:01.109Z,20.90
2022-08-28T15:25:05.955Z,22.10
2022-08-28T15:30:09.473Z,27.70
2022-08-28T15:35:12.303Z,74.60
2022-08-28T15:40:33.877Z,85.70
2022-08-28T15:45:41.710Z,36.40
2022-08-28T15:50:45.066Z,29.00
2022-08-28T15:55:47.900Z,26.10
2022-08-28T16:00:50.784Z,22.90
2022-08-28T16:05:53.591Z,24.70
2022-08-28T16:10:56.773Z,27.80
2022-08-28T16:15:59.745Z,21.40
2022-08-28T16:21:04.895Z,32.10
2022-08-28T16:26:11.088Z,27.40
2022-08-28T16:31:19.630Z,32.50
2022-08-28T16:36:26.793Z,28.90
2022-08-28T16:41:30.418Z,36.00
2022-08-28T16:46:35.363Z,31.50
2022-08-28T16:51:39.158Z,36.70
2022-08-28T16:56:42.492Z,29.10
2022-08-28T17:01:45.534Z,17.80
2022-08-28T17:06:55.919Z,25.40
2022-08-28T17:12:00.188Z,20.60
2022-08-28T17:17:03.950Z,23.70
2022-08-28T17:22:27.221Z,29.20
2022-08-28T17:27:32.235Z,23.40
2022-08-28T17:32:35.749Z,27.20
2022-08-28T17:37:40.153Z,23.30
2022-08-28T17:42:45.715Z,24.30
2022-08-28T17:47:48.559Z,23.50
2022-08-28T17:52:51.678Z,22.30
2022-08-28T17:57:55.091Z,23.10
2022-08-28T18:02:58.408Z,25.20
2022-08-28T18:08:01.204Z,22.00
2022-08-28T18:13:05.680Z,23.00
2022-08-28T18:18:08.786Z,21.60
2022-08-28T18:23:11.614Z,26.20
2022-08-28T18:28:22.474Z,23.30
2022-08-28T18:33:25.589Z,20.80
2022-08-28T18:38:28.811Z,22.70
2022-08-28T18:43:31.889Z,28.10
2022-08-28T18:48:36.532Z,26.80
2022-08-28T18:53:43.276Z,20.50
2022-08-28T18:58:46.246Z,20.70
2022-08-28T19:03:50.451Z,19.90
2022-08-28T19:08:53.240Z,21.30
2022-08-28T19:13:56.011Z,21.70
2022-08-28T19:18:58.927Z,17.80
2022-08-28T19:24:05.316Z,22.80
2022-08-28T19:29:09.531Z,21.70
2022-08-28T19:34:13.200Z,19.10
2022-08-28T19:39:16.175Z,22.00
2022-08-28T19:44:19.135Z,24.40
2022-08-28T19:49:21.880Z,18.60
2022-08-28T19:54:24.679Z,19.10
2022-08-28T19:59:27.503Z,22.40
2022-08-28T20:04:31.461Z,20.60
2022-08-28T20:09:34.217Z,20.50
2022-08-28T20:14:41.494Z,19.50
2022-08-28T20:19:46.411Z,22.30
2022-08-28T20:24:49.223Z,19.60
2022-08-28T20:29:51.986Z,18.70
2022-08-28T20:34:54.871Z,20.80
2022-08-28T20:39:58.861Z,21.70
2022-08-28T20:45:02.791Z,19.00
2022-08-28T20:50:06.232Z,21.40
2022-08-28T20:55:10.478Z,18.60
2022-08-28T21:00:14.095Z,16.70
2022-08-28T21:05:17.001Z,18.30
2022-08-28T21:10:20.033Z,18.70
2022-08-28T21:15:22.808Z,14.20
2022-08-28T21:20:26.105Z,18.80
2022-08-28T21:25:30.852Z,13.80
2022-08-28T21:30:34.283Z,13.90
2022-08-28T21:35:37.285Z,14.40
2022-08-28T21:40:41.043Z,16.00
2022-08-28T21:45:43.920Z,17.90
2022-08-28T21:50:46.876Z,16.40
2022-08-28T21:55:54.779Z,16.50
2022-08-28T22:00:58.479Z,13.90
2022-08-28T22:06:01.581Z,12.50
2022-08-28T22:11:04.719Z,11.80
2022-08-28T22:16:08.482Z,15.10
2022-08-28T22:21:32.255Z,12.90
2022-08-28T22:26:35.332Z,11.40
2022-08-28T22:31:45.513Z,10.70
2022-08-28T22:36:48.958Z,12.40
2022-08-28T22:41:51.641Z,12.00
2022-08-28T22:51:57.276Z,12.00
2022-08-28T22:57:00.016Z,12.10
2022-08-28T23:02:03.818Z,15.20
2022-08-28T23:07:06.713Z,14.40
2022-08-28T23:12:09.412Z,18.80
2022-08-28T23:22:15.693Z,16.40
2022-08-28T23:27:35.807Z,15.20
2022-08-28T23:32:39.479Z,15.60
2022-08-28T23:37:48.028Z,13.40
2022-08-28T23:42:53.563Z,13.70
2022-08-28T23:47:56.292Z,16.20
2022-08-28T23:52:59.225Z,15.60
2022-08-28T23:58:04.172Z,15.00
